createdAt,value
2024-02-10T00:03:14.585Z,14.77
2024-02-10T00:08:16.260Z,13.37
2024-02-10T00:13:18.023Z,13.13
2024-02-10T00:18:19.924Z,13.78
2024-02-10T00:23:24.031Z,13.76
2024-02-10T00:28:26.558Z,13.42
2024-02-10T00:33:28.408Z,14.56
2024-02-10T00:38:31.846Z,13.24
2024-02-10T00:43:33.718Z,12.76
2024-02-10T00:48:35.420Z,12.45
2024-02-10T00:53:43.977Z,13.02
2024-02-10T00:58:46.495Z,13.46
2024-02-10T01:03:49.281Z,12.53
2024-02-10T01:08:52.138Z,13.70
2024-02-10T01:13:54.134Z,14.75
2024-02-10T01:18:56.236Z,12.71
2024-02-10T01:23:58.675Z,14.70
2024-02-10T01:29:00.409Z,15.51
2024-02-10T01:34:02.662Z,15.13
2024-02-10T01:39:04.459Z,15.63
2024-02-10T01:44:06.819Z,14.28
2024-02-10T01:49:10.068Z,15.72
2024-02-10T01:54:12.203Z,14.50
2024-02-10T01:59:13.917Z,15.81
2024-02-10T02:04:17.220Z,16.21
2024-02-10T02:09:18.965Z,15.62
2024-02-10T02:14:20.876Z,15.93
2024-02-10T02:19:22.596Z,15.22
2024-02-10T02:24:29.751Z,16.12
2024-02-10T02:29:32.841Z,16.42
2024-02-10T02:34:35.206Z,16.68
2024-02-10T02:39:37.710Z,15.98
2024-02-10T02:44:39.539Z,15.26
2024-02-10T02:49:41.254Z,15.38
2024-02-10T02:54:44.227Z,15.05
2024-02-10T02:59:47.755Z,14.20
2024-02-10T03:04:49.591Z,14.09
2024-02-10T03:09:51.264Z,14.85
2024-02-10T03:14:52.953Z,14.25
2024-02-10T03:19:54.751Z,14.14
2024-02-10T03:24:56.860Z,15.12
2024-02-10T03:29:58.576Z,15.73
2024-02-10T03:35:00.858Z,13.49
2024-02-10T03:40:10.578Z,14.26
2024-02-10T03:45:14.957Z,14.08
2024-02-10T03:50:16.761Z,15.06
2024-02-10T03:55:18.638Z,14.93
2024-02-10T04:00:27.308Z,13.90
2024-02-10T04:05:34.853Z,15.27
2024-02-10T04:10:36.921Z,14.56
2024-02-10T04:15:38.685Z,14.40
2024-02-10T04:20:45.847Z,14.84
2024-02-10T04:25:47.922Z,16.03
2024-02-10T04:30:52.282Z,15.82
2024-02-10T04:35:54.032Z,14.30
2024-02-10T04:40:57.182Z,15.26
2024-02-10T04:45:58.883Z,15.39
2024-02-10T04:51:00.910Z,15.41
2024-02-10T04:56:04.599Z,14.32
2024-02-10T05:01:06.329Z,14.40
2024-02-10T05:06:10.918Z,15.11
2024-02-10T05:11:12.688Z,15.07
2024-02-10T05:16:19.039Z,12.41
2024-02-10T05:21:23.994Z,14.01
2024-02-10T05:26:34.028Z,14.32
2024-02-10T05:31:38.707Z,14.77
2024-02-10T05:36:40.451Z,14.68
2024-02-10T05:41:42.173Z,13.19
2024-02-10T05:46:47.025Z,13.47
2024-02-10T05:51:50.175Z,12.91
2024-02-10T05:56:52.892Z,13.41
2024-02-10T06:01:54.981Z,13.45
2024-02-10T06:12:06.163Z,12.92
2024-02-10T06:17:07.860Z,14.38
2024-02-10T06:22:10.599Z,13.59
2024-02-10T06:27:12.225Z,14.00
2024-02-10T06:32:13.938Z,14.02
2024-02-10T06:37:15.650Z,15.05
2024-02-10T06:42:18.943Z,14.54
2024-02-10T06:47:22.839Z,12.52
2024-02-10T06:52:24.607Z,12.53
2024-02-10T06:57:28.551Z,12.77
2024-02-10T07:02:30.684Z,14.83
2024-02-10T07:07:32.988Z,15.41
2024-02-10T07:12:35.762Z,13.59
2024-02-10T07:17:37.649Z,11.60
2024-02-10T07:22:39.925Z,12.00
2024-02-10T07:27:41.627Z,11.40
2024-02-10T07:32:45.758Z,11.17
2024-02-10T07:37:49.276Z,10.95
2024-02-10T07:42:54.998Z,9.76
2024-02-10T07:47:57.402Z,10.47
2024-02-10T07:53:01.179Z,9.39
2024-02-10T07:58:05.870Z,9.58
2024-02-10T08:03:07.855Z,10.84
2024-02-10T08:08:10.479Z,10.87
2024-02-10T08:13:12.213Z,10.37
2024-02-10T08:18:14.365Z,10.87
2024-02-10T08:23:18.205Z,11.05
2024-02-10T08:28:20.346Z,9.86
2024-02-10T08:33:22.409Z,9.88
2024-02-10T08:38:24.229Z,10.64
2024-02-10T08:43:25.926Z,10.73
2024-02-10T08:48:28.148Z,10.36
2024-02-10T08:53:32.006Z,11.62
2024-02-10T08:58:34.031Z,11.40
2024-02-10T09:03:35.764Z,11.34
2024-02-10T09:08:39.032Z,11.79
2024-02-10T09:13:40.723Z,11.75
2024-02-10T09:18:45.583Z,13.42
2024-02-10T09:23:50.296Z,13.24
2024-02-10T09:28:52.023Z,13.25
2024-02-10T09:33:53.736Z,12.76
2024-02-10T09:38:55.690Z,12.39
2024-02-10T09:43:57.463Z,11.24
2024-02-10T09:48:59.550Z,11.51
2024-02-10T09:54:01.820Z,11.98
2024-02-10T09:59:04.712Z,12.05
2024-02-10T10:04:11.488Z,11.66
2024-02-10T10:09:16.265Z,11.17
2024-02-10T10:14:18.423Z,11.07
2024-02-10T10:19:21.191Z,11.33
2024-02-10T10:24:23.950Z,11.33
2024-02-10T10:29:26.077Z,11.43
2024-02-10T10:34:29.706Z,10.88
2024-02-10T10:39:34.311Z,11.41
2024-02-10T10:44:36.031Z,12.19
2024-02-10T10:49:38.000Z,12.79
2024-02-10T10:54:40.603Z,13.16
2024-02-10T10:59:47.276Z,12.86
2024-02-10T11:06:28.466Z,11.02
2024-02-10T11:11:40.509Z,10.09
2024-02-10T11:16:43.749Z,9.88
2024-02-10T11:21:47.864Z,11.24
2024-02-10T11:26:49.980Z,11.47
2024-02-10T11:31:51.626Z,10.89
2024-02-10T11:36:55.075Z,11.41
2024-02-10T11:41:59.378Z,10.23
2024-02-10T11:47:01.719Z,10.56
2024-02-10T11:52:03.868Z,11.58
2024-02-10T11:57:06.421Z,11.97
2024-02-10T12:02:09.822Z,11.45
2024-02-10T12:07:13.470Z,11.92
2024-02-10T12:12:16.869Z,11.67
2024-02-10T12:17:20.827Z,11.47
2024-02-10T12:22:23.715Z,11.81
2024-02-10T12:27:27.403Z,11.73
2024-02-10T12:32:30.280Z,12.63
2024-02-10T12:37:31.973Z,12.42
2024-02-10T12:42:33.595Z,12.65
2024-02-10T12:47:39.043Z,13.21
2024-02-10T12:52:41.555Z,13.10
2024-02-10T12:57:43.808Z,13.37
2024-02-10T13:02:49.846Z,12.54
2024-02-10T13:07:51.447Z,11.94
2024-02-10T13:12:58.060Z,12.77
2024-02-10T13:17:59.737Z,12.41
2024-02-10T13:23:03.820Z,12.07
2024-02-10T13:28:09.010Z,12.43
2024-02-10T13:33:11.023Z,11.50
2024-02-10T13:38:31.389Z,11.75
2024-02-10T13:43:51.759Z,12.66
2024-02-10T13:49:12.399Z,11.55
2024-02-10T13:54:33.089Z,11.50
2024-02-10T13:59:35.505Z,11.96
2024-02-10T14:04:49.037Z,11.84
2024-02-10T14:09:50.831Z,12.76
2024-02-10T14:14:52.657Z,12.94
2024-02-10T14:20:10.357Z,13.35
2024-02-10T14:25:20.052Z,13.01
2024-02-10T14:30:32.865Z,13.51
2024-02-10T14:35:50.972Z,12.79
2024-02-10T14:40:53.164Z,12.46
2024-02-10T14:45:54.857Z,12.05
2024-02-10T14:51:00.894Z,13.44
2024-02-10T14:56:05.682Z,13.39
2024-02-10T15:01:07.321Z,13.02
2024-02-10T15:06:24.869Z,11.86
2024-02-10T15:11:26.577Z,12.03
2024-02-10T15:16:28.533Z,12.30
2024-02-10T15:21:30.775Z,12.66
2024-02-10T15:26:33.322Z,12.33
2024-02-10T15:31:35.571Z,12.55
2024-02-10T15:36:40.036Z,11.38
2024-02-10T15:41:42.094Z,12.05
2024-02-10T15:46:45.930Z,11.72
2024-02-10T15:51:47.541Z,13.16
2024-02-10T15:56:49.872Z,12.59
2024-02-10T16:01:52.756Z,13.26
2024-02-10T16:06:55.427Z,12.09
2024-02-10T16:11:57.315Z,13.16
2024-02-10T16:16:58.978Z,12.83
2024-02-10T16:22:00.744Z,13.17
2024-02-10T16:27:02.332Z,12.73
2024-02-10T16:32:04.222Z,13.48
2024-02-10T16:37:13.735Z,13.24
2024-02-10T16:42:16.901Z,12.96
2024-02-10T16:47:18.461Z,13.00
2024-02-10T16:52:22.427Z,12.80
2024-02-10T16:57:23.987Z,13.35
2024-02-10T17:02:25.602Z,13.27
2024-02-10T17:07:31.179Z,12.43
2024-02-10T17:12:33.723Z,12.76
2024-02-10T17:17:35.478Z,12.80
2024-02-10T17:22:37.176Z,12.41
2024-02-10T17:27:38.816Z,11.38
2024-02-10T17:32:40.911Z,13.05
2024-02-10T17:37:42.922Z,12.82
2024-02-10T17:42:44.603Z,11.82
2024-02-10T17:47:56.596Z,12.08
2024-02-10T17:53:07.866Z,12.10
2024-02-10T17:58:17.287Z,10.84
2024-02-10T18:03:22.975Z,10.83
2024-02-10T18:08:25.142Z,11.13
2024-02-10T18:13:26.945Z,11.58
2024-02-10T18:18:33.129Z,10.85
2024-02-10T18:23:35.692Z,11.99
2024-02-10T18:28:37.691Z,12.83
2024-02-10T18:33:39.491Z,11.94
2024-02-10T18:38:41.206Z,11.71
2024-02-10T18:43:44.484Z,11.70
2024-02-10T18:48:48.998Z,11.12
2024-02-10T18:53:51.032Z,11.31
2024-02-10T18:58:53.460Z,12.30
2024-02-10T19:03:55.729Z,12.02
2024-02-10T19:08:59.171Z,13.38
2024-02-10T19:14:06.711Z,13.37
2024-02-10T19:19:08.773Z,11.86
2024-02-10T19:24:10.512Z,12.50
2024-02-10T19:29:12.608Z,13.85
2024-02-10T19:34:18.315Z,13.01
2024-02-10T19:39:23.236Z,12.56
2024-02-10T19:44:26.041Z,12.23
2024-02-10T19:49:28.112Z,11.89
2024-02-10T19:54:29.819Z,12.05
2024-02-10T19:59:31.629Z,13.04
2024-02-10T20:04:36.374Z,13.16
2024-02-10T20:09:38.113Z,13.14
2024-02-10T20:14:41.084Z,14.46
2024-02-10T20:19:45.599Z,13.80
2024-02-10T20:24:47.772Z,15.18
2024-02-10T20:29:49.405Z,14.76
2024-02-10T20:34:51.674Z,14.19
2024-02-10T20:39:53.406Z,14.32
2024-02-10T20:44:55.250Z,14.09
2024-02-10T20:49:56.980Z,13.18
2024-02-10T20:54:58.628Z,14.11
2024-02-10T21:00:07.499Z,15.02
2024-02-10T21:05:13.227Z,14.98
2024-02-10T21:10:15.295Z,14.36
2024-02-10T21:15:18.063Z,11.76
2024-02-10T21:20:19.872Z,13.11
2024-02-10T21:25:22.289Z,12.42
2024-02-10T21:30:24.180Z,12.45
2024-02-10T21:35:27.860Z,13.94
2024-02-10T21:40:29.553Z,13.31
2024-02-10T21:45:32.426Z,13.00
2024-02-10T21:50:34.102Z,12.90
2024-02-10T21:55:39.449Z,11.51
2024-02-10T22:00:41.182Z,11.35
2024-02-10T22:05:42.974Z,11.51
2024-02-10T22:10:44.622Z,10.87
2024-02-10T22:15:49.996Z,11.24
2024-02-10T22:20:51.693Z,12.78
2024-02-10T22:25:53.415Z,13.37
2024-02-10T22:30:55.954Z,12.21
2024-02-10T22:35:58.563Z,11.54
2024-02-10T22:41:01.335Z,13.87
2024-02-10T22:46:03.484Z,11.88
2024-02-10T22:51:05.134Z,12.76
2024-02-10T22:56:09.075Z,10.09
2024-02-10T23:01:10.897Z,11.15
2024-02-10T23:06:15.179Z,12.37
2024-02-10T23:11:18.289Z,12.34
2024-02-10T23:16:23.909Z,12.37
2024-02-10T23:21:27.795Z,12.15
2024-02-10T23:26:30.436Z,12.65
2024-02-10T23:31:32.398Z,13.95
2024-02-10T23:36:38.193Z,13.29
2024-02-10T23:41:39.818Z,11.42
2024-02-10T23:46:43.040Z,13.18
2024-02-10T23:51:44.831Z,13.33
2024-02-10T23:56:46.479Z,12.74
